Latest Weather Observations for Collie East

IDW60801

Issued at 9:32 am WST Wednesday 1 June 2016 (issued every 30 minutes, with the page automatically refreshed every 10 minutes)

About weather observations | Map of weather stations | Latest weather observations for WA | Other Formats
Station Details ID: 009994 Name: COLLIE EAST Lat: -33.36 Lon: 116.17 Height: 200.0 m
Data from the previous 72 hours. | See also: Recent months at Collie East
Date/Time
WST
Temp
°C
App
Temp
°C
Dew
Point
Rel
Hum
%
Delta-T
°C
Wind Press
QNH
hPa
Press
MSL
hPa
Rain
since 9 am
mm
Dir
 
Spd
km/h
Gust
km/h
Spd
kts
Gust
kts
01/09:30am 7.9 7.1 6.5 91 0.6 CALM 0 0 0 0 - - 0.0
01/09:00am 6.3 5.3 5.4 94 0.4 CALM 0 0 0 0 - - 0.0
01/08:30am 4.3 2.9 3.4 94 0.4 CALM 0 0 0 0 - - 0.0
01/08:00am 2.0 0.2 1.1 94 0.3 CALM 0 0 0 0 - - 0.0
01/07:30am 1.2 -0.8 0.2 93 0.4 CALM 0 0 0 0 - - 0.0
01/07:00am 1.1 -0.9 0.1 93 0.4 CALM 0 0 0 0 - - 0.0
01/06:30am 1.6 -0.3 0.6 93 0.4 CALM 0 0 0 0 - - 0.0
01/06:00am 2.0 0.2 1.0 93 0.4 CALM 0 0 0 0 - - 0.0
01/05:30am 1.9 0.1 0.9 93 0.4 CALM 0 0 0 0 - - 0.0
01/05:00am 1.9 0.1 0.9 93 0.4 CALM 0 0 0 0 - - 0.0
01/04:30am 2.3 0.5 1.3 93 0.4 CALM 0 0 0 0 - - 0.0
01/04:00am 2.2 0.4 1.2 93 0.4 CALM 0 0 0 0 - - 0.0
01/03:30am 2.7 1.0 1.7 93 0.4 CALM 0 0 0 0 - - 0.0
01/03:00am 2.4 0.6 1.4 93 0.4 CALM 0 0 0 0 - - 0.0
01/02:30am 2.4 0.6 1.2 92 0.5 CALM 0 0 0 0 - - 0.0
01/02:00am 3.0 1.3 2.0 93 0.4 CALM 0 0 0 0 - - 0.0
01/01:30am 3.3 1.6 2.1 92 0.5 CALM 0 0 0 0 - - 0.0
01/01:00am 3.6 2.0 2.4 92 0.5 CALM 0 0 0 0 - - 0.0
01/12:30am 4.0 2.5 2.8 92 0.5 CALM 0 0 0 0 - - 0.0
01/12:00am 4.0 2.5 2.8 92 0.5 CALM 0 0 0 0 - - 0.0
 
Date/Time
WST
Temp
°C
App
Temp
°C
Dew
Point
Rel
Hum
%
Delta-T
°C
Wind Press
QNH
hPa
Press
MSL
hPa
Rain
since 9 am
mm
Dir
 
Spd
km/h
Gust
km/h
Spd
kts
Gust
kts
31/11:30pm 4.9 3.5 3.7 92 0.5 CALM 0 0 0 0 - - 0.0
31/11:00pm 5.3 4.0 4.1 92 0.5 CALM 0 0 0 0 - - 0.0
31/10:30pm 5.5 4.2 4.2 91 0.6 CALM 0 0 0 0 - - 0.0
31/10:00pm 6.3 5.2 5.1 92 0.5 CALM 0 0 0 0 - - 0.0
31/09:30pm 6.8 5.8 5.6 92 0.5 CALM 0 0 0 0 - - 0.0
31/09:00pm 6.9 5.9 5.5 91 0.6 CALM 0 0 0 0 - - 0.0
31/08:30pm 7.6 6.7 6.2 91 0.6 CALM 0 0 0 0 - - 0.0
31/08:00pm 8.1 7.3 6.4 89 0.8 CALM 0 0 0 0 - - 0.0
31/07:30pm 8.6 7.8 6.7 88 0.9 CALM 0 0 0 0 - - 0.0
31/07:00pm 9.4 8.8 7.5 88 0.9 CALM 0 0 0 0 - - 0.0
31/06:30pm 10.0 9.4 7.6 85 1.2 CALM 0 0 0 0 - - 0.0
31/06:00pm 10.7 10.1 7.4 80 1.6 CALM 0 0 0 0 - - 0.0
31/05:30pm 11.9 11.4 7.8 76 2.0 CALM 0 0 0 0 - - 0.0
31/05:00pm 13.6 13.2 8.2 70 2.7 CALM 0 0 0 0 - - 0.0
31/04:30pm 15.2 14.7 8.0 62 3.6 CALM 0 0 0 0 - - 0.0
31/04:00pm 15.8 14.4 7.3 57 4.3 SE 4 7 2 4 - - 0.0
31/03:30pm 16.3 14.7 8.0 58 4.2 SE 6 9 3 5 - - 0.0
31/03:00pm 16.3 14.5 7.0 54 4.6 SE 6 9 3 5 - - 0.0
31/02:30pm 17.2 15.6 6.4 49 5.4 S 4 7 2 4 - - 0.0
31/02:00pm 16.5 14.3 5.5 48 5.3 NNE 6 7 3 4 - - 0.0
31/01:30pm 15.7 14.4 6.2 53 4.7 N 2 6 1 3 - - 0.0
31/01:00pm 15.7 14.4 7.5 58 4.1 SSW 4 7 2 4 - - 0.0
31/12:30pm 15.7 15.1 7.2 57 4.2 CALM 0 6 0 3 - - 0.0
31/12:00pm 15.8 15.2 7.3 57 4.3 CALM 0 0 0 0 - - 0.0
31/11:30am 15.8 15.5 8.8 63 3.6 CALM 0 7 0 4 - - 0.0
31/11:00am 13.5 12.8 7.1 65 3.1 CALM 0 0 0 0 - - 0.0
31/10:30am 12.5 11.8 7.0 69 2.7 CALM 0 0 0 0 - - 0.0
31/10:00am 10.7 9.9 6.5 75 2.0 CALM 0 0 0 0 - - 0.0
31/09:30am 8.6 7.7 5.9 83 1.2 CALM 0 0 0 0 - - 0.0
31/09:00am 6.2 4.3 5.0 92 0.5 E 4 7 2 4 - - 0.2
31/08:30am 4.6 3.2 3.7 94 0.4 CALM 0 0 0 0 - - 0.2
31/08:00am 2.8 1.1 1.9 94 0.4 CALM 0 0 0 0 - - 0.2
31/07:30am 1.7 -0.2 0.7 93 0.4 CALM 0 0 0 0 - - 0.2
31/07:00am 1.6 -0.3 0.6 93 0.4 CALM 0 0 0 0 - - 0.2
31/06:30am 0.7 -1.3 -0.3 93 0.4 CALM 0 0 0 0 - - 0.2
31/06:00am 0.7 -1.3 -0.3 93 0.4 CALM 0 0 0 0 - - 0.2
31/05:30am 0.8 -2.0 -0.2 93 0.4 SW 4 6 2 3 - - 0.2
31/05:00am 0.9 -1.1 -0.1 93 0.4 CALM 0 0 0 0 - - 0.2
31/04:30am 1.1 -0.9 0.1 93 0.4 CALM 0 0 0 0 - - 0.2
31/04:00am 1.3 -0.6 0.3 93 0.4 CALM 0 0 0 0 - - 0.2
31/03:30am 1.4 -0.5 0.4 93 0.4 CALM 0 0 0 0 - - 0.2
31/03:00am 1.9 0.1 0.9 93 0.4 CALM 0 0 0 0 - - 0.2
31/02:30am 1.8 -0.1 0.8 93 0.4 CALM 0 0 0 0 - - 0.2
31/02:00am 1.8 -0.1 0.8 93 0.4 CALM 0 0 0 0 - - 0.2
31/01:30am 1.9 0.0 0.7 92 0.5 CALM 0 0 0 0 - - 0.2
31/01:00am 2.4 0.6 1.4 93 0.4 CALM 0 0 0 0 - - 0.2
31/12:30am 2.6 0.8 1.4 92 0.5 CALM 0 0 0 0 - - 0.2
31/12:00am 2.9 1.2 1.7 92 0.5 CALM 0 0 0 0 - - 0.2
 
Date/Time
WST
Temp
°C
App
Temp
°C
Dew
Point
Rel
Hum
%
Delta-T
°C
Wind Press
QNH
hPa
Press
MSL
hPa
Rain
since 9 am
mm
Dir
 
Spd
km/h
Gust
km/h
Spd
kts
Gust
kts
30/11:30pm 3.4 1.8 2.2 92 0.5 CALM 0 0 0 0 - - 0.2
30/11:00pm 3.9 2.3 2.7 92 0.5 CALM 0 0 0 0 - - 0.2
30/10:30pm 4.4 2.9 3.2 92 0.5 CALM 0 0 0 0 - - 0.2
30/10:00pm 4.8 3.4 3.6 92 0.5 CALM 0 0 0 0 - - 0.2
30/09:30pm 4.8 3.4 3.5 91 0.5 CALM 0 0 0 0 - - 0.2
30/09:00pm 5.2 3.9 3.9 91 0.6 CALM 0 0 0 0 - - 0.2
30/08:30pm 5.6 4.3 4.1 90 0.6 CALM 0 0 0 0 - - 0.2
30/08:00pm 6.5 5.4 5.0 90 0.7 CALM 0 0 0 0 - - 0.2
30/07:30pm 7.2 6.2 5.5 89 0.8 CALM 0 0 0 0 - - 0.2
30/07:00pm 8.4 7.6 6.5 88 0.9 CALM 0 0 0 0 - - 0.2
30/06:30pm 9.3 8.6 7.1 86 1.0 CALM 0 0 0 0 - - 0.2
30/06:00pm 9.9 9.2 6.8 81 1.5 CALM 0 0 0 0 - - 0.2
30/05:30pm 11.1 10.4 7.0 76 2.0 CALM 0 0 0 0 - - 0.2
30/05:00pm 12.8 12.1 6.8 67 2.9 CALM 0 0 0 0 - - 0.2
30/04:30pm 14.9 12.8 5.7 54 4.4 ENE 6 9 3 5 - - 0.2
30/04:00pm 16.6 14.9 5.9 49 5.2 ENE 4 7 2 4 - - 0.2
30/03:30pm 16.0 13.9 5.6 50 5.0 N 6 7 3 4 - - 0.2
30/03:00pm 15.7 13.4 5.6 51 4.9 NE 7 9 4 5 - - 0.2
30/02:30pm 14.7 12.5 6.3 57 4.1 NNE 7 11 4 6 - - 0.2
30/02:00pm 15.6 13.6 6.1 53 4.6 ESE 6 11 3 6 - - 0.2
30/01:30pm 14.6 12.5 5.9 56 4.2 ENE 6 11 3 6 - - 0.2
30/01:00pm 14.8 12.5 5.9 55 4.3 N 7 15 4 8 - - 0.2
30/12:30pm 15.0 12.7 5.8 54 4.4 ENE 7 11 4 6 - - 0.2
30/12:00pm 14.4 11.6 5.2 54 4.4 NE 9 17 5 9 - - 0.0
30/11:30am 14.4 11.9 6.5 59 3.9 NNE 9 17 5 9 - - 0.0
30/11:00am 14.1 11.4 7.2 63 3.4 NE 11 17 6 9 - - 0.0
30/10:30am 13.0 10.6 7.0 67 2.9 ENE 9 13 5 7 - - 0.0
30/10:00am 11.9 10.9 7.4 74 2.2 SE 2 9 1 5 - - 0.0
30/09:30am 9.7 9.1 7.6 87 1.0 CALM 0 0 0 0 - - 0.0
30/09:00am 7.3 6.5 6.4 94 0.4 CALM 0 0 0 0 - - 0.0
30/08:30am 5.6 4.4 4.7 94 0.4 CALM 0 0 0 0 - - 0.0
30/08:00am 3.6 2.0 2.6 93 0.4 CALM 0 0 0 0 - - 0.0
30/07:30am 2.7 1.0 1.7 93 0.4 CALM 0 0 0 0 - - 0.0
30/07:00am 2.7 1.0 1.7 93 0.4 CALM 0 0 0 0 - - 0.0
30/06:30am 3.2 1.6 2.2 93 0.4 CALM 0 0 0 0 - - 0.0
30/06:00am 3.4 1.8 2.4 93 0.4 CALM 0 0 0 0 - - 0.0
30/05:30am 3.8 2.3 2.8 93 0.4 CALM 0 0 0 0 - - 0.0
30/05:00am 4.9 3.6 3.9 93 0.4 CALM 0 0 0 0 - - 0.0
30/04:30am 5.0 3.6 3.8 92 0.5 CALM 0 0 0 0 - - 0.0
30/04:00am 5.9 4.8 4.9 93 0.4 CALM 0 0 0 0 - - 0.0
30/03:30am 6.3 5.2 5.1 92 0.5 CALM 0 0 0 0 - - 0.0
30/03:00am 6.6 5.6 5.4 92 0.5 CALM 0 0 0 0 - - 0.0
30/02:30am 6.8 5.8 5.6 92 0.5 CALM 0 0 0 0 - - 0.0
30/02:00am 7.3 6.4 5.9 91 0.6 CALM 0 0 0 0 - - 0.0
30/01:30am 7.7 6.9 6.3 91 0.6 CALM 0 0 0 0 - - 0.0
30/01:00am 8.8 8.2 7.4 91 0.7 CALM 0 0 0 0 - - 0.0
30/12:30am 9.1 8.5 7.5 90 0.8 CALM 0 0 0 0 - - 0.0
30/12:00am 9.5 8.6 7.9 90 0.8 SE 2 6 1 3 - - 0.0
 
Date/Time
WST
Temp
°C
App
Temp
°C
Dew
Point
Rel
Hum
%
Delta-T
°C
Wind Press
QNH
hPa
Press
MSL
hPa
Rain
since 9 am
mm
Dir
 
Spd
km/h
Gust
km/h
Spd
kts
Gust
kts
29/11:30pm 10.3 10.0 8.6 89 0.8 CALM 0 0 0 0 - - 0.0
29/11:00pm 10.4 10.1 8.5 88 0.9 CALM 0 0 0 0 - - 0.0
29/10:30pm 10.5 10.1 8.4 87 1.0 CALM 0 0 0 0 - - 0.0
29/10:00pm 10.6 10.3 8.5 87 1.0 CALM 0 0 0 0 - - 0.0
29/09:30pm 10.6 10.2 8.4 86 1.1 CALM 0 0 0 0 - - 0.0
29/09:00pm 10.7 10.3 8.3 85 1.2 CALM 0 0 0 0 - - 0.0
29/08:30pm 10.7 10.3 8.3 85 1.2 CALM 0 0 0 0 - - 0.0
29/08:00pm 10.6 10.1 8.0 84 1.3 CALM 0 0 0 0 - - 0.0
29/07:30pm 10.9 10.5 8.1 83 1.4 CALM 0 0 0 0 - - 0.0
29/07:00pm 11.3 10.5 8.0 80 1.6 ESE 2 6 1 3 - - 0.0
29/06:30pm 11.8 11.1 6.9 72 2.4 CALM 0 7 0 4 - - 0.0
29/06:00pm 11.7 11.2 8.0 78 1.8 CALM 0 0 0 0 - - 0.0
29/05:30pm 12.2 11.8 8.3 77 1.9 CALM 0 0 0 0 - - 0.0
29/05:00pm 12.9 12.5 8.2 73 2.4 CALM 0 0 0 0 - - 0.0
29/04:30pm 13.4 12.3 7.0 65 3.1 ESE 2 7 1 4 - - 0.0
29/04:00pm 13.6 11.6 6.9 64 3.3 ESE 7 11 4 6 - - 0.0
29/03:30pm 13.9 12.0 7.4 65 3.2 ESE 7 11 4 6 - - 0.0
29/03:00pm 13.8 11.8 7.3 65 3.2 ESE 7 11 4 6 - - 0.0
29/02:30pm 13.8 11.6 7.8 67 3.0 ESE 9 15 5 8 - - 0.0
29/02:00pm 13.9 12.2 7.7 66 3.1 SE 6 9 3 5 - - 0.0
29/01:30pm 14.3 13.1 6.6 60 3.8 E 2 7 1 4 - - 0.0
29/01:00pm 13.8 12.0 7.8 67 3.0 SSE 7 11 4 6 - - 0.0
29/12:30pm 14.0 12.2 8.0 67 3.0 SE 7 11 4 6 - - 0.0
29/12:00pm 13.1 11.6 8.4 73 2.4 SE 6 9 3 5 - - 0.0
29/11:30am 11.4 11.3 9.3 87 1.1 CALM 0 0 0 0 - - 0.0
29/11:00am 10.3 8.7 8.9 91 0.7 W 7 9 4 5 - - 0.0
29/10:30am 9.6 8.6 8.8 95 0.4 WNW 4 6 2 3 - - 0.0
29/10:00am 8.3 7.7 7.5 95 0.4 CALM 0 0 0 0 - - 0.0

Other Formats:

Comma delimited format used in spreadsheet applications
http://www.bom.gov.au/fwo/IDW60801/IDW60801.95621.axf

JavaScript Object Notation format (JSON) in row-major order
http://www.bom.gov.au/fwo/IDW60801/IDW60801.95621.json